createdAt,value
2022-10-25T00:02:32.626Z,10.23
2022-10-25T00:05:02.829Z,10.73
2022-10-25T00:07:32.828Z,11.65
2022-10-25T00:10:02.772Z,12.38
2022-10-25T00:12:33.644Z,12.52
2022-10-25T00:15:06.063Z,14.32
2022-10-25T00:17:36.684Z,14.65
2022-10-25T00:20:07.288Z,13.68
2022-10-25T00:22:37.141Z,16.33
2022-10-25T00:25:08.327Z,12.27
2022-10-25T00:27:39.481Z,14.20
2022-10-25T00:30:10.470Z,15.38
2022-10-25T00:32:40.427Z,13.20
2022-10-25T00:35:10.937Z,15.20
2022-10-25T00:40:10.693Z,14.48
2022-10-25T00:45:29.679Z,13.75
2022-10-25T00:48:06.464Z,14.05
2022-10-25T00:50:55.460Z,12.85
2022-10-25T00:53:31.405Z,14.85
2022-10-25T00:56:18.817Z,11.57
2022-10-25T00:58:53.265Z,13.65
2022-10-25T01:01:25.117Z,10.25
2022-10-25T01:03:58.570Z,12.00
2022-10-25T01:06:39.441Z,10.57
2022-10-25T01:09:12.913Z,10.82
2022-10-25T01:11:42.867Z,9.98
2022-10-25T01:14:15.637Z,10.95
2022-10-25T01:17:05.045Z,11.30
2022-10-25T01:20:07.039Z,11.90
2022-10-25T01:22:55.947Z,14.10
2022-10-25T01:25:58.530Z,14.20
2022-10-25T01:28:57.175Z,13.88
2022-10-25T01:31:37.370Z,14.30
2022-10-25T01:34:19.021Z,14.88
2022-10-25T01:37:18.840Z,14.30
2022-10-25T01:40:05.256Z,13.48
2022-10-25T01:42:53.584Z,16.15
2022-10-25T01:45:31.530Z,13.93
2022-10-25T01:48:17.278Z,13.85
2022-10-25T01:50:49.918Z,13.95
2022-10-25T01:53:20.059Z,13.45
2022-10-25T01:55:59.743Z,11.98
2022-10-25T01:58:46.561Z,14.13
2022-10-25T02:01:49.641Z,14.13
2022-10-25T02:04:46.433Z,15.65
2022-10-25T02:07:28.699Z,19.48
2022-10-25T02:10:22.647Z,23.77
2022-10-25T02:13:03.729Z,25.42
2022-10-25T02:15:44.431Z,20.02
2022-10-25T02:18:20.258Z,18.75
2022-10-25T02:20:54.221Z,19.33
2022-10-25T02:23:25.463Z,20.05
2022-10-25T02:25:56.715Z,20.27
2022-10-25T02:28:29.176Z,18.52
2022-10-25T02:31:01.098Z,19.33
2022-10-25T02:33:31.153Z,18.90
2022-10-25T02:36:22.855Z,19.10
2022-10-25T02:38:54.733Z,18.52
2022-10-25T02:41:25.488Z,20.95
2022-10-25T02:43:55.354Z,19.70
2022-10-25T02:46:26.466Z,18.48
2022-10-25T02:48:56.226Z,22.85
2022-10-25T02:51:26.640Z,20.58
2022-10-25T02:53:56.498Z,21.17
2022-10-25T02:56:26.492Z,23.38
2022-10-25T02:59:00.007Z,21.13
2022-10-25T03:01:33.293Z,21.42
2022-10-25T03:06:33.022Z,21.55
2022-10-25T03:09:02.891Z,21.95
2022-10-25T03:11:32.854Z,26.10
2022-10-25T03:14:02.742Z,22.10
2022-10-25T03:16:32.726Z,21.05
2022-10-25T03:19:02.742Z,23.88
2022-10-25T03:21:32.581Z,22.00
2022-10-25T03:24:06.300Z,22.25
2022-10-25T03:26:36.173Z,22.35
2022-10-25T03:29:06.243Z,21.73
2022-10-25T03:31:36.272Z,19.20
2022-10-25T03:34:07.334Z,19.60
2022-10-25T03:36:37.272Z,19.60
2022-10-25T03:39:07.082Z,19.60
2022-10-25T03:41:37.875Z,20.08
2022-10-25T03:44:08.098Z,20.35
2022-10-25T03:46:38.007Z,22.13
2022-10-25T03:49:07.930Z,19.95
2022-10-25T03:51:37.902Z,20.75
2022-10-25T03:54:07.907Z,17.02
2022-10-25T03:56:37.724Z,20.17
2022-10-25T03:59:07.647Z,19.95
2022-10-25T04:01:37.517Z,20.00
2022-10-25T04:04:07.676Z,19.00
2022-10-25T04:06:38.711Z,20.33
2022-10-25T04:09:09.091Z,18.70
2022-10-25T04:11:39.220Z,17.95
2022-10-25T04:16:38.194Z,18.95
2022-10-25T04:19:08.875Z,22.35
2022-10-25T04:21:38.678Z,21.23
2022-10-25T04:24:09.205Z,19.95
2022-10-25T04:26:39.708Z,19.23
2022-10-25T04:29:10.097Z,19.05
2022-10-25T04:31:39.916Z,18.67
2022-10-25T04:34:09.816Z,20.42
2022-10-25T04:36:40.980Z,18.23
2022-10-25T04:39:10.919Z,19.88
2022-10-25T04:41:40.805Z,18.80
2022-10-25T04:44:11.147Z,19.95
2022-10-25T04:46:43.997Z,20.77
2022-10-25T04:49:17.467Z,21.83
2022-10-25T04:51:47.386Z,21.90
2022-10-25T04:54:17.269Z,21.15
2022-10-25T04:56:47.127Z,21.55
2022-10-25T04:59:17.030Z,19.50
2022-10-25T05:01:46.854Z,20.58
2022-10-25T05:04:17.047Z,21.45
2022-10-25T05:06:46.868Z,21.50
2022-10-25T05:09:16.741Z,19.65
2022-10-25T05:11:46.655Z,22.27
2022-10-25T05:14:17.354Z,21.65
2022-10-25T05:16:47.230Z,20.35
2022-10-25T05:19:17.480Z,20.08
2022-10-25T05:21:47.805Z,20.13
2022-10-25T05:24:18.335Z,19.08
2022-10-25T05:26:48.749Z,21.35
2022-10-25T05:29:19.018Z,18.08
2022-10-25T05:31:49.317Z,18.60
2022-10-25T05:34:20.007Z,18.35
2022-10-25T05:36:50.439Z,18.77
2022-10-25T05:39:20.788Z,18.70
2022-10-25T05:41:51.957Z,17.83
2022-10-25T05:44:22.338Z,17.70
2022-10-25T05:46:53.894Z,16.75
2022-10-25T05:49:24.259Z,19.10
2022-10-25T05:51:54.596Z,17.65
2022-10-25T05:54:25.644Z,17.88
2022-10-25T05:56:56.086Z,16.40
2022-10-25T05:59:26.434Z,18.83
2022-10-25T06:01:56.965Z,17.27
2022-10-25T06:04:27.351Z,16.77
2022-10-25T06:06:58.792Z,16.75
2022-10-25T06:09:29.138Z,15.38
2022-10-25T06:11:59.734Z,13.80
2022-10-25T06:14:30.081Z,10.23
2022-10-25T06:17:00.710Z,9.38
2022-10-25T06:19:31.134Z,9.65
2022-10-25T06:22:01.483Z,8.07
2022-10-25T06:24:31.796Z,9.50
2022-10-25T06:27:02.282Z,8.45
2022-10-25T06:29:32.659Z,8.27
2022-10-25T06:32:02.931Z,9.00
2022-10-25T06:34:33.217Z,10.75
2022-10-25T06:37:03.498Z,10.02
2022-10-25T06:39:33.805Z,8.77
2022-10-25T06:42:04.207Z,8.95
2022-10-25T06:44:34.499Z,9.25
2022-10-25T06:47:17.111Z,10.60
2022-10-25T06:49:48.938Z,9.35
2022-10-25T06:52:19.375Z,8.65
2022-10-25T06:54:49.663Z,10.40
2022-10-25T06:57:20.021Z,8.88
2022-10-25T06:59:50.290Z,7.75
2022-10-25T07:02:20.867Z,8.65
2022-10-25T07:04:51.357Z,7.93
2022-10-25T07:07:21.896Z,7.65
2022-10-25T07:09:52.220Z,6.85
2022-10-25T07:12:22.685Z,7.97
2022-10-25T07:14:52.926Z,7.80
2022-10-25T07:17:24.054Z,8.35
2022-10-25T07:19:54.367Z,6.63
2022-10-25T07:22:24.805Z,8.05
2022-10-25T07:24:55.151Z,6.60
2022-10-25T07:27:25.512Z,8.43
2022-10-25T07:29:55.764Z,6.82
2022-10-25T07:32:26.160Z,7.43
2022-10-25T07:39:56.482Z,7.85
2022-10-25T07:42:26.801Z,7.82
2022-10-25T07:44:57.086Z,8.52
2022-10-25T07:47:27.595Z,8.07
2022-10-25T07:49:59.729Z,7.60
2022-10-25T07:52:30.110Z,6.43
2022-10-25T07:55:00.417Z,6.93
2022-10-25T07:57:30.800Z,7.40
2022-10-25T08:00:01.240Z,8.35
2022-10-25T08:02:31.589Z,8.00
2022-10-25T08:05:02.132Z,9.25
2022-10-25T08:07:33.509Z,7.93
2022-10-25T08:10:03.814Z,8.13
2022-10-25T08:12:34.152Z,8.75
2022-10-25T08:15:04.423Z,8.52
2022-10-25T08:17:34.673Z,9.25
2022-10-25T08:20:07.570Z,9.77
2022-10-25T08:22:38.056Z,8.75
2022-10-25T08:25:09.986Z,10.25
2022-10-25T08:27:40.344Z,9.77
2022-10-25T08:30:11.377Z,9.85
2022-10-25T08:32:42.065Z,10.40
2022-10-25T08:35:12.784Z,9.43
2022-10-25T08:37:43.043Z,9.13
2022-10-25T08:40:52.265Z,11.07
2022-10-25T08:43:43.597Z,9.57
2022-10-25T08:46:24.738Z,10.05
2022-10-25T08:49:11.738Z,9.90
2022-10-25T08:51:45.506Z,10.27
2022-10-25T08:54:25.718Z,10.88
2022-10-25T08:57:17.074Z,9.65
2022-10-25T08:59:52.677Z,11.38
2022-10-25T09:02:45.273Z,10.30
2022-10-25T09:05:44.066Z,9.95
2022-10-25T09:08:45.100Z,10.18
2022-10-25T09:11:44.193Z,10.82
2022-10-25T09:14:44.460Z,10.80
2022-10-25T09:17:25.037Z,11.25
2022-10-25T09:20:26.993Z,12.93
2022-10-25T09:23:05.451Z,11.73
2022-10-25T09:25:51.423Z,14.40
2022-10-25T09:28:29.486Z,12.80
2022-10-25T09:31:02.041Z,12.57
2022-10-25T09:33:33.275Z,11.75
2022-10-25T09:36:03.441Z,11.50
2022-10-25T09:38:44.164Z,12.07
2022-10-25T09:41:23.398Z,11.95
2022-10-25T09:44:04.024Z,12.15
2022-10-25T09:46:43.249Z,12.68
2022-10-25T09:49:36.492Z,12.02
2022-10-25T09:52:23.745Z,13.00
2022-10-25T09:55:01.995Z,12.18
2022-10-25T09:57:32.062Z,12.32
2022-10-25T10:02:31.320Z,12.88
2022-10-25T10:05:01.243Z,12.82
2022-10-25T10:07:38.106Z,11.55
2022-10-25T10:10:13.454Z,13.60
2022-10-25T10:13:14.231Z,12.57
2022-10-25T10:16:00.503Z,10.63
2022-10-25T10:18:37.972Z,11.93
2022-10-25T10:21:18.258Z,10.98
2022-10-25T10:23:56.409Z,11.23
2022-10-25T10:26:32.924Z,11.60
2022-10-25T10:29:17.584Z,10.80
2022-10-25T10:31:52.625Z,9.50
2022-10-25T10:34:32.853Z,11.45
2022-10-25T10:37:29.260Z,12.25
2022-10-25T10:40:04.115Z,11.27
2022-10-25T10:42:39.978Z,10.10
2022-10-25T10:45:19.602Z,10.57
2022-10-25T10:47:59.698Z,11.20
2022-10-25T10:53:08.814Z,10.38
2022-10-25T10:55:49.492Z,9.95
2022-10-25T10:58:28.886Z,11.75
2022-10-25T11:01:08.763Z,11.38
2022-10-25T11:04:00.034Z,11.32
2022-10-25T11:06:34.480Z,9.82
2022-10-25T11:09:18.670Z,11.68
2022-10-25T11:12:01.368Z,10.00
2022-10-25T11:14:31.431Z,10.32
2022-10-25T11:20:22.138Z,10.40
2022-10-25T11:23:13.125Z,10.40
2022-10-25T11:26:00.477Z,10.25
2022-10-25T11:28:59.338Z,10.23
2022-10-25T11:31:52.604Z,10.48
2022-10-25T11:34:43.369Z,11.98
2022-10-25T11:37:35.021Z,10.93
2022-10-25T11:40:23.091Z,12.10
2022-10-25T11:43:10.182Z,10.75
2022-10-25T11:45:53.415Z,9.48
2022-10-25T11:48:53.668Z,11.30
2022-10-25T11:54:35.920Z,10.57
2022-10-25T11:57:18.481Z,10.85
2022-10-25T12:00:14.309Z,11.80
2022-10-25T12:03:04.623Z,10.82
2022-10-25T12:06:08.950Z,11.05
2022-10-25T12:09:06.145Z,11.27
2022-10-25T12:11:44.479Z,11.50
2022-10-25T12:14:18.927Z,13.23
2022-10-25T12:16:49.656Z,12.25
2022-10-25T12:19:26.684Z,12.32
2022-10-25T12:22:03.429Z,12.80
2022-10-25T12:24:41.999Z,11.35
2022-10-25T12:27:15.084Z,12.00
2022-10-25T12:29:51.012Z,15.93
2022-10-25T12:32:25.724Z,14.65
2022-10-25T12:34:59.623Z,15.25
2022-10-25T12:37:43.279Z,15.85
2022-10-25T12:40:21.118Z,14.82
2022-10-25T12:43:00.108Z,15.20
2022-10-25T12:46:01.610Z,15.05
2022-10-25T12:48:58.793Z,15.68
2022-10-25T12:51:43.374Z,16.77
2022-10-25T12:54:47.939Z,15.95
2022-10-25T12:57:57.193Z,32.33
2022-10-25T13:00:27.645Z,31.02
2022-10-25T13:03:26.259Z,25.05
2022-10-25T13:06:28.383Z,20.85
2022-10-25T13:09:10.638Z,21.02
2022-10-25T13:11:44.894Z,22.05
2022-10-25T13:14:38.952Z,18.67
2022-10-25T13:17:39.390Z,19.45
2022-10-25T13:20:40.050Z,18.02
2022-10-25T13:23:39.526Z,26.95
2022-10-25T13:26:12.385Z,25.20
2022-10-25T13:28:54.008Z,28.58
2022-10-25T13:31:47.724Z,27.45
2022-10-25T13:34:31.873Z,25.00
2022-10-25T13:37:04.484Z,24.42
2022-10-25T13:39:46.196Z,18.38
2022-10-25T13:42:36.244Z,18.10
2022-10-25T13:45:33.452Z,16.13
2022-10-25T13:48:18.362Z,19.15
2022-10-25T13:50:57.402Z,23.45
2022-10-25T13:53:39.369Z,26.83
2022-10-25T13:56:39.064Z,25.35
2022-10-25T13:59:41.515Z,27.27
2022-10-25T14:02:21.072Z,23.70
2022-10-25T14:04:51.145Z,19.17
2022-10-25T14:07:49.481Z,16.30
2022-10-25T14:10:31.862Z,15.13
2022-10-25T14:13:13.594Z,14.73
2022-10-25T14:15:52.317Z,15.30
2022-10-25T14:18:25.602Z,14.77
2022-10-25T14:21:01.200Z,15.13
2022-10-25T14:23:36.318Z,14.85
2022-10-25T14:26:15.771Z,13.27
2022-10-25T14:28:45.660Z,13.80
2022-10-25T14:31:23.526Z,14.40
2022-10-25T14:33:56.856Z,13.85
2022-10-25T14:36:31.793Z,14.75
2022-10-25T14:39:04.887Z,13.82
2022-10-25T14:41:36.960Z,12.10
2022-10-25T14:44:26.213Z,12.70
2022-10-25T14:46:56.715Z,11.65
2022-10-25T14:49:27.649Z,12.98
2022-10-25T14:52:02.872Z,14.95
2022-10-25T14:54:36.468Z,13.38
2022-10-25T14:57:08.762Z,13.95
2022-10-25T14:59:59.901Z,14.50
2022-10-25T15:02:41.849Z,15.10
2022-10-25T15:05:22.200Z,13.93
2022-10-25T15:10:42.667Z,14.18
2022-10-25T15:13:34.338Z,17.10
2022-10-25T15:16:25.261Z,15.93
2022-10-25T15:19:19.326Z,15.50
2022-10-25T15:21:54.753Z,15.60
2022-10-25T15:24:28.201Z,16.27
2022-10-25T15:27:03.260Z,14.95
2022-10-25T15:32:27.219Z,15.20
2022-10-25T15:35:00.700Z,17.20
2022-10-25T15:37:31.984Z,17.90
2022-10-25T15:40:02.708Z,16.48
2022-10-25T15:42:32.488Z,16.10
2022-10-25T15:45:02.330Z,15.40
2022-10-25T15:47:37.491Z,15.45
2022-10-25T15:50:16.274Z,13.48
2022-10-25T15:52:46.743Z,14.77
2022-10-25T15:55:26.388Z,14.77
2022-10-25T15:57:57.180Z,14.55
2022-10-25T16:00:28.580Z,14.02
2022-10-25T16:02:59.760Z,14.50
2022-10-25T16:05:33.738Z,13.07
2022-10-25T16:08:04.138Z,12.55
2022-10-25T16:10:34.428Z,12.80
2022-10-25T16:15:37.891Z,11.70
2022-10-25T16:18:07.733Z,12.15
2022-10-25T16:20:37.611Z,11.48
2022-10-25T16:23:07.552Z,12.07
2022-10-25T16:25:37.428Z,11.80
2022-10-25T16:28:07.763Z,13.00
2022-10-25T16:33:11.163Z,9.93
2022-10-25T16:35:41.099Z,12.20
2022-10-25T16:38:11.862Z,10.05
2022-10-25T16:40:41.940Z,10.52
2022-10-25T16:43:15.071Z,11.05
2022-10-25T16:45:45.269Z,10.25
2022-10-25T16:48:15.066Z,10.05
2022-10-25T16:50:44.988Z,9.82
2022-10-25T16:53:16.874Z,9.68
2022-10-25T16:55:46.761Z,10.10
2022-10-25T16:58:16.594Z,10.95
2022-10-25T17:00:46.552Z,11.07
2022-10-25T17:03:16.435Z,9.55
2022-10-25T17:05:46.207Z,11.63
2022-10-25T17:08:16.970Z,11.07
2022-10-25T17:10:47.118Z,10.52
2022-10-25T17:13:19.796Z,11.75
2022-10-25T17:15:49.760Z,11.20
2022-10-25T17:18:22.767Z,10.68
2022-10-25T17:20:52.573Z,11.23
2022-10-25T17:23:22.474Z,11.60
2022-10-25T17:26:00.810Z,11.48
2022-10-25T17:28:31.958Z,12.80
2022-10-25T17:31:02.347Z,13.02
2022-10-25T17:33:33.582Z,10.85
2022-10-25T17:36:08.788Z,11.60
2022-10-25T17:38:38.637Z,11.10
2022-10-25T17:41:08.846Z,9.35
2022-10-25T17:43:40.294Z,8.80
2022-10-25T17:46:16.462Z,9.30
2022-10-25T17:48:46.685Z,7.93
2022-10-25T17:51:17.528Z,8.38
2022-10-25T17:53:53.412Z,9.93
2022-10-25T17:56:25.711Z,9.48
2022-10-25T17:58:56.649Z,9.48
2022-10-25T18:01:29.535Z,8.88
2022-10-25T18:04:01.552Z,9.30
2022-10-25T18:06:32.530Z,10.00
2022-10-25T18:09:04.966Z,11.32
2022-10-25T18:11:34.883Z,10.07
2022-10-25T18:14:05.838Z,9.70
2022-10-25T18:16:36.302Z,9.73
2022-10-25T18:19:08.857Z,9.98
2022-10-25T18:21:38.836Z,10.00
2022-10-25T18:24:08.779Z,10.32
2022-10-25T18:26:38.737Z,11.25
2022-10-25T18:29:08.848Z,11.35
2022-10-25T18:31:38.996Z,10.30
2022-10-25T18:34:08.992Z,10.13
2022-10-25T18:36:38.934Z,9.35
2022-10-25T18:39:08.811Z,9.80
2022-10-25T18:41:39.040Z,9.85
2022-10-25T18:44:14.198Z,9.38
2022-10-25T18:46:45.824Z,9.68
2022-10-25T18:54:15.970Z,8.15
2022-10-25T18:59:15.029Z,10.18
2022-10-25T19:01:45.338Z,10.48
2022-10-25T19:06:46.185Z,10.55
2022-10-25T19:09:16.481Z,9.95
2022-10-25T19:11:46.370Z,10.93
2022-10-25T19:14:16.407Z,11.50
2022-10-25T19:16:46.622Z,10.75
2022-10-25T19:19:16.534Z,10.45
2022-10-25T19:21:46.479Z,10.70
2022-10-25T19:24:18.184Z,10.45
2022-10-25T19:26:48.000Z,11.50
2022-10-25T19:29:17.797Z,11.20
2022-10-25T19:31:47.640Z,11.48
2022-10-25T19:34:17.594Z,11.77
2022-10-25T19:36:47.382Z,10.75
2022-10-25T19:39:17.218Z,8.75
2022-10-25T19:41:47.272Z,8.70
2022-10-25T19:44:17.050Z,9.52
2022-10-25T19:46:46.913Z,9.95
2022-10-25T19:49:16.885Z,9.65
2022-10-25T19:51:46.888Z,10.05
2022-10-25T19:54:16.764Z,9.35
2022-10-25T19:56:47.988Z,8.65
2022-10-25T19:59:17.972Z,9.85
2022-10-25T20:01:49.339Z,10.35
2022-10-25T20:04:19.459Z,9.18
2022-10-25T20:06:49.405Z,10.38
2022-10-25T20:09:19.408Z,9.60
2022-10-25T20:11:49.231Z,8.35
2022-10-25T20:14:19.124Z,9.93
2022-10-25T20:16:49.768Z,8.65
2022-10-25T20:19:19.751Z,9.93
2022-10-25T20:21:49.803Z,10.05
2022-10-25T20:24:20.199Z,11.45
2022-10-25T20:29:26.044Z,11.63
2022-10-25T20:31:56.034Z,10.38
2022-10-25T20:34:26.012Z,10.43
2022-10-25T20:36:55.989Z,9.70
2022-10-25T20:39:25.944Z,9.00
2022-10-25T20:41:55.720Z,9.65
2022-10-25T20:44:25.672Z,9.85
2022-10-25T20:46:55.662Z,9.43
2022-10-25T20:49:25.411Z,9.15
2022-10-25T20:51:55.230Z,8.98
2022-10-25T20:54:25.128Z,9.52
2022-10-25T20:56:55.043Z,9.32
2022-10-25T20:59:24.938Z,7.95
2022-10-25T21:01:55.847Z,8.13
2022-10-25T21:04:30.562Z,7.82
2022-10-25T21:07:11.925Z,7.90
2022-10-25T21:09:44.646Z,7.93
2022-10-25T21:12:17.057Z,8.60
2022-10-25T21:14:46.771Z,8.45
2022-10-25T21:17:16.731Z,8.85
2022-10-25T21:19:46.696Z,8.77
2022-10-25T21:22:16.560Z,10.93
2022-10-25T21:24:46.487Z,9.07
2022-10-25T21:27:16.653Z,9.30
2022-10-25T21:29:46.647Z,8.98
2022-10-25T21:32:16.661Z,9.18
2022-10-25T21:34:46.783Z,10.18
2022-10-25T21:37:17.038Z,9.30
2022-10-25T21:39:47.635Z,8.80
2022-10-25T21:42:17.654Z,9.80
2022-10-25T21:44:47.601Z,9.93
2022-10-25T21:47:17.563Z,9.48
2022-10-25T21:49:47.350Z,9.32
2022-10-25T21:52:17.210Z,8.30
2022-10-25T21:54:47.065Z,10.10
2022-10-25T21:57:17.198Z,9.85
2022-10-25T21:59:47.059Z,11.02
2022-10-25T22:02:17.857Z,10.43
2022-10-25T22:04:47.729Z,9.52
2022-10-25T22:07:17.553Z,9.85
2022-10-25T22:09:48.089Z,9.93
2022-10-25T22:14:47.664Z,7.88
2022-10-25T22:17:17.646Z,8.55
2022-10-25T22:19:47.387Z,8.27
2022-10-25T22:22:17.240Z,6.90
2022-10-25T22:24:47.256Z,7.63
2022-10-25T22:27:17.100Z,8.60
2022-10-25T22:29:47.063Z,8.25
2022-10-25T22:32:17.121Z,7.63
2022-10-25T22:34:46.985Z,7.75
2022-10-25T22:37:16.730Z,9.63
2022-10-25T22:39:46.719Z,9.05
2022-10-25T22:42:16.819Z,8.65
2022-10-25T22:44:46.670Z,8.23
2022-10-25T22:47:16.752Z,8.52
2022-10-25T22:49:46.620Z,9.57
2022-10-25T22:52:16.543Z,9.80
2022-10-25T22:54:46.614Z,10.07
2022-10-25T22:57:16.483Z,12.15
2022-10-25T22:59:46.335Z,13.05
2022-10-25T23:02:16.166Z,12.45
2022-10-25T23:04:46.021Z,13.98
2022-10-25T23:07:15.908Z,11.52
2022-10-25T23:09:45.983Z,11.48
2022-10-25T23:12:15.858Z,12.18
2022-10-25T23:14:45.698Z,12.55
2022-10-25T23:17:15.607Z,11.43
2022-10-25T23:19:45.357Z,11.95
2022-10-25T23:22:15.198Z,10.98
2022-10-25T23:24:45.142Z,13.52
2022-10-25T23:27:15.455Z,10.43
2022-10-25T23:29:45.346Z,12.77
2022-10-25T23:32:15.102Z,12.60
2022-10-25T23:34:44.912Z,12.95
2022-10-25T23:37:14.840Z,13.20
2022-10-25T23:39:44.710Z,8.32
2022-10-25T23:42:14.467Z,12.00
2022-10-25T23:44:44.951Z,11.23
2022-10-25T23:47:14.702Z,10.40
2022-10-25T23:49:44.673Z,13.02
2022-10-25T23:52:14.544Z,11.18
2022-10-25T23:54:44.429Z,12.43
2022-10-25T23:57:14.170Z,12.98
2022-10-25T23:59:44.016Z,11.93
